Time;durP1;ratioP1;P1;durP2;ratioP2;P2;SDS_P1;SDS_P2;PMS_P1;PMS_P2;Temp;Humidity;BMP_temperature;BMP_pressure;BME280_temperature;BME280_humidity;BME280_pressure;Samples;Min_cycle;Max_cycle;Signal;HPM_P1;HPM_P2
2022/06/29 00:01:57;;;;;;;7.50;4.57;;;15.50;99.90;15.00;100778;;;;567329;248;24077;-81
2022/06/29 00:04:24;;;;;;;5.93;4.93;;;15.50;99.90;14.90;100773;;;;569863;248;24061;-78
2022/06/29 00:06:53;;;;;;;8.17;5.10;;;15.50;99.90;14.90;100783;;;;567291;248;24091;-78
2022/06/29 00:09:21;;;;;;;7.10;4.20;;;15.40;99.90;14.90;100791;;;;567276;248;24107;-81
2022/06/29 00:11:49;;;;;;;7.60;5.00;;;15.50;99.90;14.80;100789;;;;567983;247;24083;-81
2022/06/29 00:14:17;;;;;;;7.37;4.90;;;15.40;99.90;14.80;100786;;;;568465;248;24123;-83
2022/06/29 00:16:45;;;;;;;6.43;4.57;;;15.40;99.90;14.80;100792;;;;568223;248;24088;-76
2022/06/29 00:19:13;;;;;;;7.83;5.13;;;15.40;99.90;14.80;100789;;;;568202;248;24088;-77
2022/06/29 00:21:41;;;;;;;5.97;4.80;;;15.40;99.90;14.80;100789;;;;567845;248;24130;-78
2022/06/29 00:24:09;;;;;;;7.33;4.57;;;15.40;99.90;14.80;100791;;;;568270;248;24086;-77
2022/06/29 00:26:36;;;;;;;12.30;5.37;;;15.30;99.90;14.80;100793;;;;568270;248;24087;-78
2022/06/29 00:29:04;;;;;;;11.03;5.30;;;15.30;99.90;14.80;100786;;;;568304;248;24053;-81
2022/06/29 00:31:32;;;;;;;7.43;5.60;;;15.30;99.90;14.80;100787;;;;570159;248;24136;-83
2022/06/29 00:34:01;;;;;;;8.90;6.00;;;15.30;99.90;14.70;100790;;;;568028;248;24058;-78
2022/06/29 00:36:29;;;;;;;10.07;6.23;;;15.30;99.90;14.70;100788;;;;568003;248;24100;-80
2022/06/29 00:38:57;;;;;;;8.40;5.50;;;15.30;99.90;14.70;100780;;;;568004;248;24066;-77
2022/06/29 00:41:25;;;;;;;12.47;5.77;;;15.20;99.90;14.60;100777;;;;568107;248;24079;-80
2022/06/29 00:43:53;;;;;;;8.33;6.00;;;15.20;99.90;14.60;100781;;;;570550;248;25149;-82
2022/06/29 00:46:21;;;;;;;7.00;5.40;;;15.20;99.90;14.60;100777;;;;568081;248;24104;-83
2022/06/29 00:48:48;;;;;;;9.20;6.17;;;15.20;99.90;14.60;100789;;;;567789;244;24095;-81
2022/06/29 00:51:17;;;;;;;7.73;5.83;;;15.10;99.90;14.60;100780;;;;567710;248;24091;-84
2022/06/29 00:53:44;;;;;;;7.17;5.57;;;15.10;99.90;14.50;100786;;;;569675;248;24087;-78
2022/06/29 00:56:12;;;;;;;7.90;6.43;;;15.10;99.90;14.50;100782;;;;569731;248;24128;-84
2022/06/29 00:58:46;;;;;;;11.03;6.60;;;15.10;99.90;14.50;100790;;;;569670;248;24149;-77
2022/06/29 01:01:11;;;;;;;11.53;6.53;;;15.10;99.90;14.50;100785;;;;569613;248;24108;-77
2022/06/29 01:03:39;;;;;;;7.60;6.37;;;15.10;99.90;14.50;100780;;;;569784;248;24092;-83
2022/06/29 01:06:06;;;;;;;11.90;9.13;;;15.10;99.90;14.50;100777;;;;565042;248;36333;-82
2022/06/29 01:08:34;;;;;;;14.95;10.23;;;15.10;99.90;14.50;100786;;;;562900;248;46216;-77
2022/06/29 01:11:02;;;;;;;9.97;7.47;;;15.10;99.90;14.50;100785;;;;567688;248;24153;-84
2022/06/29 01:13:30;;;;;;;13.10;6.97;;;15.00;99.90;14.40;100785;;;;567819;248;24107;-83
2022/06/29 01:15:58;;;;;;;12.10;7.37;;;15.00;99.90;14.40;100776;;;;567680;248;24065;-83
2022/06/29 01:18:26;;;;;;;10.47;6.47;;;15.00;99.90;14.40;100785;;;;567289;248;24124;-77
2022/06/29 01:20:54;;;;;;;9.20;6.37;;;15.00;99.90;14.40;100785;;;;567211;248;24136;-77
2022/06/29 01:23:22;;;;;;;16.17;7.00;;;15.00;99.90;14.30;100780;;;;570085;247;24110;-79
2022/06/29 01:25:50;;;;;;;8.93;6.20;;;14.90;99.90;14.30;100773;;;;568911;248;24109;-82
2022/06/29 01:28:18;;;;;;;7.00;6.30;;;14.90;99.90;14.30;100760;;;;570777;248;24070;-77
2022/06/29 01:30:46;;;;;;;13.27;6.57;;;14.80;99.90;14.20;100762;;;;568400;248;24080;-78
2022/06/29 01:33:14;;;;;;;13.17;6.47;;;14.80;99.90;14.20;100758;;;;568412;248;24095;-79
2022/06/29 01:35:43;;;;;;;8.57;7.03;;;14.70;99.90;14.20;100751;;;;568653;248;24068;-77
2022/06/29 01:38:12;;;;;;;8.40;6.93;;;14.70;99.90;14.10;100748;;;;568320;248;24099;-77
2022/06/29 01:40:40;;;;;;;7.13;5.97;;;14.70;99.90;14.10;100756;;;;568266;248;24093;-78
2022/06/29 01:43:07;;;;;;;9.83;7.00;;;14.70;99.90;14.10;100752;;;;568036;248;24064;-76
2022/06/29 01:45:38;;;;;;;9.83;6.43;;;14.70;99.90;14.10;100751;;;;568044;248;24080;-76
2022/06/29 01:48:03;;;;;;;9.67;7.00;;;14.70;99.90;14.10;100755;;;;570043;248;24145;-79
2022/06/29 01:50:31;;;;;;;10.23;7.63;;;14.70;99.90;14.10;100757;;;;569893;248;24085;-76
2022/06/29 01:52:59;;;;;;;10.47;7.80;;;14.70;99.90;14.10;100747;;;;569860;248;24117;-77
2022/06/29 01:55:27;;;;;;;8.10;7.07;;;14.70;99.90;14.10;100740;;;;567716;248;24067;-76
2022/06/29 01:57:55;;;;;;;9.97;7.40;;;14.70;99.90;14.10;100734;;;;567788;248;24130;-77
2022/06/29 02:00:23;;;;;;;11.30;7.77;;;14.70;99.90;14.10;100733;;;;567422;248;24109;-76
2022/06/29 02:02:51;;;;;;;13.90;7.90;;;14.70;99.90;14.10;100739;;;;567449;248;24090;-76
2022/06/29 02:05:19;;;;;;;16.87;7.33;;;14.70;99.90;14.10;100735;;;;567429;248;24148;-78
2022/06/29 02:07:47;;;;;;;14.70;7.57;;;14.60;99.90;14.10;100731;;;;567177;248;24111;-78
2022/06/29 02:10:15;;;;;;;11.60;7.13;;;14.70;99.90;14.10;100721;;;;567450;248;24095;-76
2022/06/29 02:12:43;;;;;;;9.40;7.30;;;14.60;99.90;14.10;100723;;;;567330;248;24105;-77
2022/06/29 02:15:11;;;;;;;10.07;7.40;;;14.60;99.90;14.10;100720;;;;569729;248;24088;-76
2022/06/29 02:17:39;;;;;;;9.87;8.00;;;14.60;99.90;14.10;100716;;;;569588;248;24072;-78
2022/06/29 02:20:07;;;;;;;9.23;7.50;;;14.70;99.90;14.10;100720;;;;567443;248;24136;-77
2022/06/29 02:22:36;;;;;;;12.40;7.77;;;14.60;99.90;14.00;100721;;;;572057;248;24072;-76
2022/06/29 02:25:04;;;;;;;8.80;7.80;;;14.60;99.90;14.10;100724;;;;570106;248;24102;-76
2022/06/29 02:27:32;;;;;;;14.20;8.43;;;14.60;99.90;14.00;100722;;;;569952;248;24075;-76
2022/06/29 02:30:00;;;;;;;15.27;7.97;;;14.60;99.90;14.00;100725;;;;567859;248;24153;-76
2022/06/29 02:35:14;;;;;;;9.17;7.60;;;14.60;99.90;14.00;100703;;;;570836;247;24066;-76
2022/06/29 02:37:42;;;;;;;10.50;6.90;;;14.60;99.90;14.00;100707;;;;573394;248;24116;-76
2022/06/29 02:40:10;;;;;;;12.93;7.17;;;14.60;99.90;14.00;100702;;;;568813;248;24088;-77
2022/06/29 02:42:39;;;;;;;9.00;7.63;;;14.60;99.90;14.10;100705;;;;570753;248;24079;-79
2022/06/29 02:45:08;;;;;;;10.53;7.60;;;14.60;99.90;14.10;100707;;;;568427;248;24096;-81
2022/06/29 02:47:36;;;;;;;9.53;8.07;;;14.60;99.90;14.10;100717;;;;570526;248;24097;-77
2022/06/29 02:50:04;;;;;;;9.73;8.73;;;14.60;99.90;14.10;100704;;;;568350;248;24079;-77
2022/06/29 02:52:32;;;;;;;14.40;7.63;;;14.70;99.90;14.10;100701;;;;570267;248;24097;-77
2022/06/29 02:54:59;;;;;;;8.33;7.43;;;14.70;99.90;14.20;100712;;;;567896;248;24117;-79
2022/06/29 02:57:27;;;;;;;11.77;8.43;;;14.70;99.90;14.20;100716;;;;567762;248;24076;-79
2022/06/29 02:59:55;;;;;;;8.40;6.93;;;14.80;99.90;14.30;100712;;;;568111;248;24212;-77
2022/06/29 03:02:23;;;;;;;16.27;12.17;;;14.80;99.90;14.30;100706;;;;565602;248;36625;-77
2022/06/29 03:04:51;;;;;;;14.47;12.57;;;14.90;99.90;14.40;100703;;;;563268;248;36798;-77
2022/06/29 03:07:19;;;;;;;11.83;9.43;;;15.00;99.90;14.50;100709;;;;567925;248;24068;-76
2022/06/29 03:09:47;;;;;;;9.27;7.83;;;15.00;99.90;14.60;100711;;;;569897;248;24093;-78
2022/06/29 03:12:15;;;;;;;12.50;7.77;;;15.10;99.90;14.60;100705;;;;567964;248;24093;-77
2022/06/29 03:14:43;;;;;;;10.03;7.83;;;15.10;99.90;14.80;100704;;;;568063;248;24119;-76
2022/06/29 03:17:11;;;;;;;7.17;6.47;;;15.30;99.90;15.20;100705;;;;567718;248;24083;-76
2022/06/29 03:19:39;;;;;;;10.07;8.33;;;15.60;99.90;16.00;100716;;;;567978;248;24104;-76
2022/06/29 03:22:07;;;;;;;10.13;7.73;;;16.30;99.90;16.70;100703;;;;567828;248;24082;-77
2022/06/29 03:24:34;;;;;;;7.27;6.57;;;17.10;99.90;17.40;100697;;;;569928;248;24084;-77
2022/06/29 03:27:02;;;;;;;6.87;6.17;;;17.80;99.90;18.10;100704;;;;568285;248;24090;-77
2022/06/29 03:29:30;;;;;;;5.90;5.27;;;18.60;99.90;18.70;100708;;;;570285;248;24069;-77
2022/06/29 03:31:59;;;;;;;5.17;4.47;;;19.90;99.90;19.40;100707;;;;568228;248;25147;-80
2022/06/29 03:34:28;;;;;;;4.43;4.03;;;20.70;99.90;20.10;100698;;;;568431;248;24084;-79
2022/06/29 03:36:56;;;;;;;5.53;4.30;;;20.60;99.90;20.80;100706;;;;568304;248;24103;-79
2022/06/29 03:39:23;;;;;;;4.00;3.70;;;21.30;99.90;21.30;100708;;;;568282;248;23131;-83
2022/06/29 03:41:51;;;;;;;4.70;3.70;;;21.90;99.90;21.90;100711;;;;568242;248;23086;-77
2022/06/29 03:44:19;;;;;;;4.90;3.47;;;22.50;99.90;22.30;100707;;;;567963;248;24125;-82
2022/06/29 03:46:47;;;;;;;3.90;3.50;;;22.90;99.90;22.80;100715;;;;568680;247;24066;-76
2022/06/29 03:49:15;;;;;;;3.83;3.43;;;23.40;99.90;23.30;100727;;;;569034;248;23174;-78
2022/06/29 03:51:43;;;;;;;4.17;3.43;;;23.90;99.90;23.70;100724;;;;568176;248;23090;-77
2022/06/29 03:54:12;;;;;;;3.73;3.17;;;25.00;99.90;24.30;100723;;;;568204;248;23102;-77
2022/06/29 03:56:40;;;;;;;3.23;2.67;;;25.50;99.90;24.80;100733;;;;567941;248;23205;-75
2022/06/29 03:59:09;;;;;;;4.83;3.30;;;26.10;99.90;25.50;100729;;;;567717;248;24113;-79
2022/06/29 04:01:37;;;;;;;5.43;3.73;;;26.10;99.90;25.90;100732;;;;567917;248;23140;-81
2022/06/29 04:04:06;;;;;;;3.37;3.10;;;26.60;99.90;26.50;100733;;;;567783;248;24155;-84
2022/06/29 04:06:33;;;;;;;3.20;3.00;;;27.20;99.90;27.10;100731;;;;567810;248;23167;-81
2022/06/29 04:09:01;;;;;;;6.60;2.97;;;27.90;99.90;27.60;100736;;;;567589;248;23092;-76
2022/06/29 04:14:17;;;;;;;3.22;2.42;;;28.90;99.90;28.70;100724;;;;569682;248;23121;-77
2022/06/29 04:16:46;;;;;;;3.28;2.97;;;29.30;97.10;28.30;100722;;;;569792;248;23079;-79
2022/06/29 04:19:14;;;;;;;3.53;2.70;;;29.20;97.10;27.50;100734;;;;569771;248;24089;-77
2022/06/29 04:21:42;;;;;;;3.22;2.92;;;28.60;96.90;27.10;100727;;;;567755;248;23082;-76
2022/06/29 04:24:10;;;;;;;2.90;2.63;;;28.10;97.40;27.80;100731;;;;567275;248;23099;-76
2022/06/29 04:26:38;;;;;;;4.68;2.92;;;28.50;97.80;28.00;100726;;;;569445;248;24098;-78
2022/06/29 04:29:06;;;;;;;3.65;2.95;;;28.40;95.90;27.60;100727;;;;570276;248;23136;-77
2022/06/29 04:31:35;;;;;;;8.00;3.50;;;27.70;96.20;26.90;100728;;;;570446;248;23145;-80
2022/06/29 04:34:03;;;;;;;3.40;3.00;;;27.70;96.20;26.20;100725;;;;570102;248;24140;-77
2022/06/29 04:36:31;;;;;;;5.20;3.30;;;27.10;97.00;25.40;100723;;;;569836;248;23118;-76
2022/06/29 04:38:59;;;;;;;5.03;3.13;;;26.30;98.00;24.70;100720;;;;569847;248;23098;-85
2022/06/29 04:41:27;;;;;;;6.07;3.73;;;25.50;99.50;23.90;100713;;;;569925;248;23091;-83
2022/06/29 04:43:54;;;;;;;7.03;4.10;;;24.80;99.90;23.30;100717;;;;567748;248;24128;-76
2022/06/29 04:46:22;;;;;;;6.13;4.07;;;24.00;99.90;22.90;100709;;;;567673;248;24137;-77
2022/06/29 04:49:00;;;;;;;6.90;4.57;;;23.50;99.90;22.80;100711;;;;562783;244;35265;-76
2022/06/29 04:51:27;;;;;;;5.70;4.27;;;23.30;99.90;22.60;100712;;;;578119;248;23120;-80
2022/06/29 04:53:56;;;;;;;11.10;4.50;;;23.10;99.90;22.50;100711;;;;569357;248;24152;-77
2022/06/29 04:56:23;;;;;;;5.33;3.27;;;22.90;99.90;22.30;100710;;;;569400;248;24163;-77
2022/06/29 04:58:55;;;;;;;3.73;3.43;;;22.80;99.90;22.30;100714;;;;578323;247;24084;-78
2022/06/29 05:01:19;;;;;;;5.27;3.60;;;22.70;99.90;22.40;100704;;;;570140;248;24103;-78
2022/06/29 05:03:51;;;;;;;7.97;3.43;;;22.80;99.90;22.70;100703;;;;570577;248;24084;-84
2022/06/29 05:06:16;;;;;;;5.50;3.60;;;24.00;99.90;23.70;100697;;;;570760;248;24084;-83
2022/06/29 05:08:44;;;;;;;8.40;3.60;;;23.90;99.90;24.70;100698;;;;570317;248;24093;-82
2022/06/29 05:11:14;;;;;;;5.13;3.33;;;25.00;99.90;26.20;100697;;;;570115;248;23104;-82
2022/06/29 05:13:39;;;;;;;3.77;3.10;;;26.30;99.90;28.00;100701;;;;567817;248;24106;-76
2022/06/29 05:16:07;;;;;;;2.77;2.63;;;28.30;99.90;28.90;100696;;;;570159;248;23164;-76
2022/06/29 05:18:35;;;;;;;4.78;2.90;;;29.30;99.40;30.10;100700;;;;569908;248;23094;-77
2022/06/29 05:21:07;;;;;;;5.37;2.50;;;30.70;95.80;31.00;100703;;;;569994;248;23095;-84
2022/06/29 05:23:31;;;;;;;6.05;2.05;;;31.60;92.40;32.60;100713;;;;569726;248;23099;-84
2022/06/29 05:25:59;;;;;;;3.80;2.95;;;33.10;88.00;34.20;100714;;;;569871;248;23094;-83
2022/06/29 05:28:28;;;;;;;2.90;2.60;;;36.20;71.40;35.60;100718;;;;567866;248;24132;-80
2022/06/29 05:30:56;;;;;;;4.37;2.40;;;36.10;71.20;36.30;100709;;;;568497;248;23086;-82
2022/06/29 05:33:24;;;;;;;2.50;2.30;;;37.00;65.40;37.10;100712;;;;568198;248;23141;-84
2022/06/29 05:35:51;;;;;;;2.22;2.12;;;37.80;61.60;37.40;100719;;;;567863;248;24099;-82
2022/06/29 05:38:19;;;;;;;3.37;2.17;;;38.10;59.10;37.40;100727;;;;567874;248;25174;-84
2022/06/29 05:40:47;;;;;;;2.17;2.08;;;38.40;57.50;36.30;100729;;;;567935;248;24149;-83
2022/06/29 05:43:15;;;;;;;2.50;2.12;;;37.40;56.90;35.00;100740;;;;567974;248;24113;-77
2022/06/29 05:45:43;;;;;;;2.25;2.05;;;36.20;58.30;34.00;100723;;;;567869;248;24121;-84
2022/06/29 05:48:12;;;;;;;3.45;2.40;;;34.30;61.90;33.30;100724;;;;567947;248;23106;-82
2022/06/29 05:50:40;;;;;;;2.53;2.30;;;34.20;61.90;32.70;100723;;;;567769;248;23094;-82
2022/06/29 05:53:08;;;;;;;3.03;2.17;;;33.50;63.70;32.10;100729;;;;568177;248;23086;-84
2022/06/29 05:55:36;;;;;;;2.12;2.03;;;32.80;65.00;31.60;100718;;;;567537;248;24148;-76
2022/06/29 05:58:03;;;;;;;2.20;2.10;;;32.10;66.90;30.90;100721;;;;567409;248;23108;-76
2022/06/29 06:00:31;;;;;;;4.50;2.08;;;31.50;68.00;30.40;100719;;;;567276;248;23162;-76
2022/06/29 06:02:59;;;;;;;2.53;1.83;;;30.90;69.30;30.10;100729;;;;567498;248;23095;-76
2022/06/29 06:05:27;;;;;;;4.97;2.15;;;30.60;71.00;29.60;100732;;;;567334;248;23140;-76
2022/06/29 06:07:55;;;;;;;6.47;2.45;;;30.10;71.90;28.80;100732;;;;567570;248;23085;-76
2022/06/29 06:10:23;;;;;;;7.37;2.30;;;29.50;73.50;28.10;100731;;;;568528;247;23085;-79
2022/06/29 06:12:52;;;;;;;3.45;2.53;;;28.70;75.90;27.60;100732;;;;568531;248;23102;-76
2022/06/29 06:15:19;;;;;;;6.07;2.47;;;28.10;78.30;27.10;100726;;;;568222;248;24088;-77
2022/06/29 06:17:47;;;;;;;5.43;2.47;;;27.20;82.30;26.80;100727;;;;568159;248;24101;-77
2022/06/29 06:20:17;;;;;;;3.03;2.33;;;27.00;84.00;26.80;100732;;;;568013;248;24106;-79
2022/06/29 06:22:45;;;;;;;2.60;2.40;;;26.90;84.80;26.60;100729;;;;568030;248;23094;-78
2022/06/29 06:25:13;;;;;;;4.17;2.40;;;26.90;84.80;26.40;100720;;;;568207;248;23237;-80
2022/06/29 06:27:41;;;;;;;5.30;2.50;;;26.70;85.60;26.40;100721;;;;568069;248;23078;-77
2022/06/29 06:30:10;;;;;;;3.30;3.00;;;27.00;88.00;26.80;100719;;;;567808;248;23136;-76
2022/06/29 06:32:38;;;;;;;4.13;2.40;;;27.00;87.90;27.00;100732;;;;570462;248;23108;-78
2022/06/29 06:35:06;;;;;;;1.93;1.83;;;27.20;87.70;27.10;100726;;;;570432;248;23097;-82
2022/06/29 06:37:33;;;;;;;5.40;2.17;;;27.40;86.90;27.20;100726;;;;570727;248;23097;-84
2022/06/29 06:42:47;;;;;;;3.12;2.08;;;28.60;86.70;32.20;100727;;;;570383;248;24173;-81
2022/06/29 06:45:15;;;;;;;2.00;1.90;;;31.80;78.80;33.10;100730;;;;568178;248;24087;-77
2022/06/29 06:47:43;;;;;;;4.00;2.25;;;33.30;71.80;33.20;100733;;;;568015;248;24132;-79
2022/06/29 06:50:11;;;;;;;1.80;1.70;;;33.60;69.60;34.50;100719;;;;567685;248;24175;-81
2022/06/29 06:52:39;;;;;;;1.92;1.83;;;34.70;66.90;36.90;100729;;;;569713;248;23166;-78
2022/06/29 06:55:07;;;;;;;1.70;1.60;;;36.80;62.00;39.00;100735;;;;567894;248;23089;-82
2022/06/29 06:57:35;;;;;;;1.92;1.40;;;39.00;57.00;39.80;100729;;;;569846;248;23112;-79
2022/06/29 07:00:03;;;;;;;1.75;1.65;;;40.10;53.30;39.40;100726;;;;570017;248;24121;-86
2022/06/29 07:02:31;;;;;;;1.90;1.80;;;40.10;51.80;38.90;100715;;;;565033;248;35245;-86
2022/06/29 07:04:59;;;;;;;4.10;1.95;;;39.70;51.20;38.80;100721;;;;567934;248;23082;-80
2022/06/29 07:07:27;;;;;;;2.03;1.92;;;39.50;50.60;39.40;100724;;;;567965;248;23079;-83
2022/06/29 07:09:54;;;;;;;3.28;1.98;;;39.70;51.00;41.40;100718;;;;568147;248;23093;-82
2022/06/29 07:12:26;;;;;;;1.67;1.60;;;41.30;49.60;43.30;100716;;;;568435;248;23082;-83
2022/06/29 07:14:50;;;;;;;2.03;1.70;;;43.20;47.40;45.30;100717;;;;570631;248;23127;-85
2022/06/29 07:17:18;;;;;;;1.90;1.77;;;45.00;45.00;46.50;100724;;;;568792;248;23130;-83
2022/06/29 07:19:47;;;;;;;1.67;1.52;;;46.50;42.50;47.40;100723;;;;568786;248;23055;-83
2022/06/29 07:22:15;;;;;;;1.73;1.67;;;47.60;41.10;48.00;100725;;;;569888;247;23140;-77
2022/06/29 07:24:43;;;;;;;1.65;1.60;;;48.30;40.10;46.50;100746;;;;571470;248;23081;-86
2022/06/29 07:27:11;;;;;;;2.50;1.58;;;47.50;39.40;43.90;100752;;;;570725;248;23108;-80
2022/06/29 07:29:42;;;;;;;1.80;1.70;;;45.50;40.30;41.70;100753;;;;571003;248;24129;-85
2022/06/29 07:32:07;;;;;;;2.10;1.80;;;43.30;42.70;40.00;100754;;;;570128;248;23090;-80
2022/06/29 07:34:35;;;;;;;2.20;1.98;;;41.40;44.60;38.60;100747;;;;570669;248;23089;-85
2022/06/29 07:37:03;;;;;;;1.83;1.73;;;39.60;46.20;37.40;100738;;;;570618;248;23075;-83
2022/06/29 07:39:31;;;;;;;1.80;1.67;;;38.20;47.70;36.90;100733;;;;570515;248;23122;-82
2022/06/29 07:41:58;;;;;;;1.58;1.58;;;37.30;49.30;38.30;100738;;;;570758;248;23097;-83
2022/06/29 07:44:26;;;;;;;3.70;1.90;;;38.10;49.40;40.70;100735;;;;570732;248;23083;-80
2022/06/29 07:46:54;;;;;;;2.03;1.92;;;40.10;47.50;43.00;100730;;;;568925;248;23082;-81
2022/06/29 07:49:25;;;;;;;2.87;1.62;;;42.40;44.60;45.10;100736;;;;570631;248;23101;-84
2022/06/29 07:51:53;;;;;;;2.42;1.60;;;44.70;42.40;46.50;100740;;;;572977;248;23114;-80
2022/06/29 07:54:18;;;;;;;1.85;1.75;;;46.30;40.00;47.30;100745;;;;570625;248;23122;-86
2022/06/29 07:56:46;;;;;;;1.70;1.60;;;47.40;39.10;47.40;100741;;;;568533;248;23175;-86
2022/06/29 07:59:14;;;;;;;2.17;2.00;;;47.90;38.20;45.70;100739;;;;567754;248;23130;-80
2022/06/29 08:01:42;;;;;;;2.00;1.90;;;47.10;38.20;43.70;100738;;;;569583;248;23140;-79
2022/06/29 08:04:10;;;;;;;2.05;1.95;;;45.30;39.30;41.60;100734;;;;567366;248;23099;-78
2022/06/29 08:06:38;;;;;;;2.05;1.95;;;41.20;43.20;39.80;100731;;;;567561;248;24129;-78
2022/06/29 08:09:10;;;;;;;1.87;1.77;;;39.70;44.40;38.50;100732;;;;569475;248;23113;-77
2022/06/29 08:11:38;;;;;;;1.95;1.95;;;39.70;44.40;37.70;100733;;;;567546;248;23104;-76
2022/06/29 08:14:07;;;;;;;2.28;1.90;;;37.90;47.70;37.40;100728;;;;567457;248;23130;-76
2022/06/29 08:16:35;;;;;;;2.30;1.87;;;38.00;47.90;38.00;100724;;;;567491;248;23091;-77
2022/06/29 08:19:04;;;;;;;2.65;2.05;;;38.10;47.10;37.80;100732;;;;567401;248;23113;-77
2022/06/29 08:21:32;;;;;;;1.75;1.75;;;38.00;47.00;38.60;100730;;;;568122;248;23125;-81
2022/06/29 08:24:00;;;;;;;3.33;2.08;;;38.50;47.70;40.80;100725;;;;567696;248;23156;-77
2022/06/29 08:26:28;;;;;;;1.90;1.80;;;40.40;45.70;43.00;100723;;;;567373;248;24128;-76
2022/06/29 08:28:56;;;;;;;1.80;1.70;;;42.60;43.20;44.50;100712;;;;567643;248;23105;-77
2022/06/29 08:31:24;;;;;;;2.20;2.00;;;44.40;41.00;45.70;100710;;;;567418;248;23165;-75
2022/06/29 08:33:52;;;;;;;1.80;1.70;;;45.70;40.10;46.50;100712;;;;568986;247;23145;-77
2022/06/29 08:36:24;;;;;;;2.25;2.15;;;47.30;37.40;46.60;100717;;;;568956;248;23116;-77
2022/06/29 08:38:49;;;;;;;2.03;1.92;;;47.00;37.80;45.50;100713;;;;573140;246;23171;-77
2022/06/29 08:41:17;;;;;;;2.80;1.87;;;46.90;37.60;43.90;100712;;;;570556;248;23086;-78
2022/06/29 08:43:45;;;;;;;2.50;2.30;;;45.60;38.70;42.00;100712;;;;570394;248;23103;-78
2022/06/29 08:46:13;;;;;;;2.28;2.08;;;43.90;40.10;41.50;100715;;;;570897;248;23162;-83
2022/06/29 08:48:44;;;;;;;1.90;1.80;;;42.80;41.80;41.30;100715;;;;571307;248;23108;-88
2022/06/29 08:51:09;;;;;;;2.10;1.90;;;42.40;41.50;40.40;100711;;;;570067;248;23117;-84
2022/06/29 08:53:39;;;;;;;2.42;2.10;;;41.50;42.40;39.60;100712;;;;570179;248;23099;-85
2022/06/29 08:56:08;;;;;;;4.00;2.33;;;40.60;43.90;39.40;100719;;;;570207;248;23095;-79
2022/06/29 08:58:32;;;;;;;2.30;2.10;;;40.00;45.20;38.60;100721;;;;578745;247;23098;-84
2022/06/29 09:01:00;;;;;;;2.35;2.03;;;39.40;46.10;37.60;100721;;;;567067;248;23086;-83
2022/06/29 09:03:29;;;;;;;3.25;2.22;;;37.50;48.40;36.90;100722;;;;568237;248;23108;-86
2022/06/29 09:06:01;;;;;;;2.08;1.98;;;37.40;48.30;36.40;100725;;;;568193;248;23114;-77
2022/06/29 09:08:26;;;;;;;4.15;2.50;;;36.90;48.60;35.70;100729;;;;568120;248;23144;-81
2022/06/29 09:10:54;;;;;;;4.22;2.58;;;36.40;49.20;35.10;100739;;;;567998;248;24136;-80
2022/06/29 09:13:26;;;;;;;3.92;1.92;;;35.70;50.20;34.50;100729;;;;567792;248;23201;-85
2022/06/29 09:15:59;;;;;;;2.92;2.72;;;35.20;51.80;34.00;100739;;;;569712;248;24135;-83
2022/06/29 09:18:30;;;;;;;2.58;2.37;;;34.70;51.80;33.70;100745;;;;573434;248;46124;-86
2022/06/29 09:20:55;;;;;;;2.42;2.20;;;34.40;52.70;33.50;100739;;;;569759;248;23093;-80
2022/06/29 09:23:23;;;;;;;5.60;2.15;;;34.20;53.20;33.50;100738;;;;568856;248;23141;-84
2022/06/29 09:25:55;;;;;;;2.55;2.30;;;34.10;53.10;33.40;100737;;;;578525;247;24109;-85
2022/06/29 09:28:31;;;;;;;3.03;2.45;;;33.90;53.20;33.40;100736;;;;569328;248;23113;-84
2022/06/29 09:31:02;;;;;;;2.20;2.10;;;33.90;53.40;33.10;100741;;;;570412;248;23109;-84
2022/06/29 09:33:32;;;;;;;1.98;1.87;;;33.80;53.80;32.90;100733;;;;570007;248;23119;-84
2022/06/29 09:36:17;;;;;;;3.17;2.67;;;33.60;54.00;32.70;100731;;;;579086;248;23094;-84
2022/06/29 09:38:43;;;;;;;3.17;2.58;;;33.40;54.80;32.50;100738;;;;570354;248;23098;-85
2022/06/29 09:41:18;;;;;;;2.90;2.70;;;32.80;57.40;32.20;100733;;;;568120;248;24084;-86
2022/06/29 09:43:42;;;;;;;3.37;2.72;;;32.80;56.90;31.70;100729;;;;572833;247;24098;-79
2022/06/29 09:46:10;;;;;;;2.85;2.65;;;32.30;57.60;31.30;100730;;;;571705;247;23092;-83
2022/06/29 09:48:40;;;;;;;2.87;2.67;;;32.00;58.60;31.50;100729;;;;570409;248;23161;-86
2022/06/29 09:53:55;;;;;;;2.75;2.60;;;31.80;60.40;31.10;100727;;;;570786;248;23157;-80
2022/06/29 09:56:22;;;;;;;3.30;3.10;;;31.50;61.40;31.60;100727;;;;570460;248;23196;-82
2022/06/29 09:58:50;;;;;;;2.67;2.42;;;31.80;60.60;32.30;100722;;;;570690;248;23110;-77
2022/06/29 10:04:05;;;;;;;4.12;2.53;;;33.00;58.80;32.10;100728;;;;570613;248;23106;-78
2022/06/29 10:06:36;;;;;;;7.78;4.07;;;32.80;59.30;31.80;100730;;;;570516;248;23106;-77
2022/06/29 10:09:04;;;;;;;3.40;2.55;;;32.60;59.60;31.70;100730;;;;569798;248;23102;-75
2022/06/29 10:14:44;;;;;;;3.08;2.78;;;32.40;60.50;31.30;100742;;;;570224;248;25151;-76
2022/06/29 10:17:30;;;;;;;3.08;2.70;;;32.10;60.10;30.70;100741;;;;570402;248;23113;-76
2022/06/29 10:20:23;;;;;;;5.32;2.78;;;31.60;61.10;30.20;100736;;;;569606;248;23147;-77
2022/06/29 10:22:51;;;;;;;2.90;2.70;;;31.00;63.10;29.90;100741;;;;577300;245;23115;-77
2022/06/29 10:25:23;;;;;;;3.20;3.00;;;30.60;63.90;29.90;100738;;;;567905;248;23148;-79
2022/06/29 10:28:10;;;;;;;3.28;3.08;;;30.60;63.80;30.10;100740;;;;569781;248;23148;-78
2022/06/29 10:30:41;;;;;;;4.37;2.97;;;30.60;63.80;29.90;100737;;;;570367;248;23098;-82
2022/06/29 10:33:30;;;;;;;3.62;3.42;;;30.50;63.90;30.00;100730;;;;569840;248;23105;-80
2022/06/29 10:36:11;;;;;;;3.83;2.67;;;30.50;65.30;30.40;100729;;;;566509;248;23130;-79
2022/06/29 10:38:53;;;;;;;4.62;2.95;;;30.70;65.70;31.30;100735;;;;570331;248;23094;-83
2022/06/29 10:44:05;;;;;;;4.15;2.53;;;32.60;61.70;32.90;100725;;;;570442;248;23152;-81
2022/06/29 10:46:57;;;;;;;6.30;2.87;;;33.30;59.00;33.00;100725;;;;568323;248;23103;-83
2022/06/29 10:49:26;;;;;;;3.40;2.70;;;33.30;58.00;33.00;100727;;;;577074;245;23110;-76
2022/06/29 10:51:54;;;;;;;2.65;2.35;;;33.10;58.60;32.80;100732;;;;570477;248;23194;-83
2022/06/29 10:54:33;;;;;;;4.50;2.78;;;32.70;59.20;32.30;100729;;;;576315;248;23091;-83
2022/06/29 10:57:01;;;;;;;4.43;2.70;;;32.00;60.10;31.60;100729;;;;571396;247;23100;-80
2022/06/29 10:59:38;;;;;;;3.22;2.40;;;31.30;62.10;30.60;100734;;;;579675;247;23094;-77
2022/06/29 11:02:17;;;;;;;2.87;2.65;;;31.20;62.00;29.60;100725;;;;570815;248;24064;-75
2022/06/29 11:04:44;;;;;;;3.97;2.50;;;30.40;64.00;28.60;100728;;;;570790;248;23132;-77
2022/06/29 11:12:51;;;;;;;3.77;2.50;;;28.20;72.30;27.20;100735;;;;570495;248;23135;-81
2022/06/29 11:15:40;;;;;;;5.53;2.47;;;27.80;73.80;26.70;100730;;;;569647;248;23135;-79
2022/06/29 11:18:13;;;;;;;3.70;2.53;;;27.30;74.90;26.30;100731;;;;570510;248;23096;-77
2022/06/29 11:20:41;;;;;;;3.40;2.27;;;26.90;76.20;26.00;100730;;;;570567;248;24127;-78
2022/06/29 11:23:14;;;;;;;3.17;2.10;;;26.50;77.60;25.80;100726;;;;572850;248;23098;-77
2022/06/29 11:25:44;;;;;;;3.53;2.50;;;26.30;78.30;25.60;100720;;;;579091;248;24158;-79
2022/06/29 11:28:10;;;;;;;2.83;2.47;;;26.00;79.30;25.40;100720;;;;570785;248;23096;-78
2022/06/29 11:30:38;;;;;;;2.77;2.57;;;25.90;80.50;25.20;100722;;;;571102;248;23113;-77
2022/06/29 11:33:12;;;;;;;4.93;2.50;;;25.70;82.00;25.10;100723;;;;571049;248;24121;-79
2022/06/29 11:35:42;;;;;;;17.80;3.70;;;25.60;83.40;25.10;100720;;;;571070;248;24128;-81
2022/06/29 11:38:07;;;;;;;2.73;2.53;;;25.50;83.90;25.10;100719;;;;570595;248;24147;-79
2022/06/29 11:40:41;;;;;;;2.33;2.20;;;25.50;83.30;25.00;100716;;;;568434;248;24132;-85